createdAt,value
2023-04-01T00:00:54.224Z,6.50
2023-04-01T00:03:43.011Z,9.85
2023-04-01T00:06:31.688Z,8.45
2023-04-01T00:09:20.601Z,8.80
2023-04-01T00:12:09.006Z,8.40
2023-04-01T00:14:57.701Z,7.47
2023-04-01T00:17:47.506Z,7.43
2023-04-01T00:20:36.226Z,8.40
2023-04-01T00:23:24.660Z,8.43
2023-04-01T00:26:15.228Z,8.00
2023-04-01T00:29:03.771Z,8.65
2023-04-01T00:31:52.326Z,9.55
2023-04-01T00:34:42.687Z,10.57
2023-04-01T00:37:31.320Z,9.15
2023-04-01T00:40:27.784Z,8.32
2023-04-01T00:43:19.329Z,7.53
2023-04-01T00:46:07.741Z,7.68
2023-04-01T00:48:58.239Z,7.30
2023-04-01T00:51:52.283Z,6.25
2023-04-01T00:54:43.161Z,6.97
2023-04-01T00:57:37.388Z,6.60
2023-04-01T01:00:27.329Z,5.75
2023-04-01T01:03:15.874Z,6.35
2023-04-01T01:06:12.946Z,6.60
2023-04-01T01:09:15.050Z,6.28
2023-04-01T01:12:10.149Z,5.15
2023-04-01T01:15:08.238Z,5.70
2023-04-01T01:18:03.640Z,5.00
2023-04-01T01:21:18.648Z,4.63
2023-04-01T01:24:23.139Z,3.92
2023-04-01T01:27:13.797Z,3.28
2023-04-01T01:30:27.132Z,2.57
2023-04-01T01:33:37.007Z,2.30
2023-04-01T01:36:31.076Z,2.17
2023-04-01T01:39:20.527Z,2.05
2023-04-01T01:42:13.207Z,8.90
2023-04-01T01:45:04.084Z,11.02
2023-04-01T01:47:53.737Z,11.40
2023-04-01T01:50:43.442Z,10.82
2023-04-01T01:53:33.312Z,11.60
2023-04-01T01:56:25.541Z,10.40
2023-04-01T01:59:15.655Z,11.43
2023-04-01T02:02:08.946Z,11.82
2023-04-01T02:04:57.475Z,11.00
2023-04-01T02:07:50.503Z,11.35
2023-04-01T02:10:44.127Z,10.80
2023-04-01T02:13:40.102Z,11.25
2023-04-01T02:16:31.701Z,11.77
2023-04-01T02:19:23.638Z,11.10
2023-04-01T02:22:15.687Z,11.65
2023-04-01T02:25:10.332Z,13.27
2023-04-01T02:28:02.008Z,13.68
2023-04-01T02:30:51.934Z,12.57
2023-04-01T02:33:41.946Z,12.93
2023-04-01T02:36:30.959Z,13.73
2023-04-01T02:39:20.092Z,13.15
2023-04-01T02:42:08.610Z,12.77
2023-04-01T02:44:58.429Z,13.15
2023-04-01T02:47:46.950Z,13.90
2023-04-01T02:50:35.476Z,12.82
2023-04-01T02:53:24.259Z,12.88
2023-04-01T02:56:12.724Z,15.48
2023-04-01T02:59:01.157Z,13.73
2023-04-01T03:01:51.271Z,14.20
2023-04-01T03:04:40.391Z,13.25
2023-04-01T03:07:29.151Z,13.90
2023-04-01T03:10:18.013Z,13.70
2023-04-01T03:13:07.277Z,13.47
2023-04-01T03:15:56.163Z,17.60
2023-04-01T03:18:45.951Z,14.45
2023-04-01T03:21:34.441Z,14.55
2023-04-01T03:24:23.011Z,15.50
2023-04-01T03:27:11.489Z,17.02
2023-04-01T03:29:59.962Z,15.57
2023-04-01T03:32:49.336Z,16.98
2023-04-01T03:35:39.155Z,14.55
2023-04-01T03:38:27.618Z,14.15
2023-04-01T03:41:16.651Z,15.00
2023-04-01T03:44:05.262Z,14.57
2023-04-01T03:46:53.744Z,13.87
2023-04-01T03:49:42.330Z,13.82
2023-04-01T03:52:32.180Z,13.25
2023-04-01T03:55:21.298Z,15.23
2023-04-01T03:58:10.048Z,15.40
2023-04-01T04:00:58.578Z,17.02
2023-04-01T04:03:47.402Z,14.85
2023-04-01T04:06:36.001Z,13.50
2023-04-01T04:09:26.131Z,15.25
2023-04-01T04:12:14.564Z,13.25
2023-04-01T04:15:03.061Z,13.02
2023-04-01T04:17:51.688Z,14.05
2023-04-01T04:20:46.626Z,12.90
2023-04-01T04:23:35.765Z,12.63
2023-04-01T04:26:25.616Z,18.40
2023-04-01T04:29:14.071Z,15.07
2023-04-01T04:32:02.481Z,14.93
2023-04-01T04:34:51.018Z,15.35
2023-04-01T04:37:39.435Z,13.63
2023-04-01T04:40:27.912Z,15.15
2023-04-01T04:43:19.396Z,16.20
2023-04-01T04:46:08.803Z,13.43
2023-04-01T04:48:57.480Z,13.52
2023-04-01T04:51:46.107Z,14.55
2023-04-01T04:54:34.573Z,12.55
2023-04-01T04:57:23.062Z,14.20
2023-04-01T05:00:13.875Z,13.07
2023-04-01T05:03:02.655Z,12.43
2023-04-01T05:05:52.388Z,13.23
2023-04-01T05:08:41.411Z,12.98
2023-04-01T05:11:29.928Z,14.80
2023-04-01T05:14:18.508Z,11.15
2023-04-01T05:17:11.033Z,12.63
2023-04-01T05:19:59.568Z,11.75
2023-04-01T05:22:47.984Z,11.13
2023-04-01T05:25:39.450Z,10.25
2023-04-01T05:28:27.899Z,12.83
2023-04-01T05:31:16.638Z,13.25
2023-04-01T05:34:06.545Z,11.77
2023-04-01T05:36:54.977Z,11.50
2023-04-01T05:39:43.561Z,11.25
2023-04-01T05:42:32.002Z,12.40
2023-04-01T05:45:20.426Z,12.63
2023-04-01T05:48:08.900Z,11.63
2023-04-01T05:50:58.817Z,11.73
2023-04-01T05:53:47.420Z,16.65
2023-04-01T05:56:35.863Z,14.10
2023-04-01T05:59:24.333Z,15.40
2023-04-01T06:02:12.932Z,14.77
2023-04-01T06:05:13.265Z,12.93
2023-04-01T06:08:11.755Z,12.68
2023-04-01T06:11:10.228Z,12.77
2023-04-01T06:14:13.866Z,11.70
2023-04-01T06:17:18.740Z,13.73
2023-04-01T06:20:18.972Z,15.00
2023-04-01T06:23:21.599Z,14.97
2023-04-01T06:26:27.986Z,15.02
2023-04-01T06:29:47.081Z,12.90
2023-04-01T06:33:04.884Z,11.98
2023-04-01T06:36:08.903Z,10.60
2023-04-01T06:39:18.953Z,11.00
2023-04-01T06:42:27.246Z,17.77
2023-04-01T06:45:30.997Z,16.30
2023-04-01T06:48:44.034Z,13.25
2023-04-01T06:51:41.260Z,14.25
2023-04-01T06:54:36.691Z,12.07
2023-04-01T06:57:32.117Z,10.68
2023-04-01T07:00:27.057Z,11.40
2023-04-01T07:03:23.889Z,13.93
2023-04-01T07:06:15.536Z,13.30
2023-04-01T07:09:07.145Z,12.20
2023-04-01T07:11:59.723Z,11.88
2023-04-01T07:14:50.852Z,10.65
2023-04-01T07:17:42.055Z,9.65
2023-04-01T07:20:32.291Z,7.43
2023-04-01T07:23:25.586Z,7.75
2023-04-01T07:26:19.921Z,8.63
2023-04-01T07:29:12.939Z,9.05
2023-04-01T07:32:23.058Z,9.38
2023-04-01T07:35:31.168Z,8.38
2023-04-01T07:38:29.299Z,8.82
2023-04-01T07:41:26.572Z,6.35
2023-04-01T07:44:24.568Z,8.00
2023-04-01T07:47:34.306Z,6.38
2023-04-01T07:50:28.794Z,4.97
2023-04-01T07:53:28.153Z,4.90
2023-04-01T07:56:25.732Z,6.70
2023-04-01T07:59:22.821Z,5.53
2023-04-01T08:02:22.781Z,6.63
2023-04-01T08:05:21.366Z,8.10
2023-04-01T08:08:20.343Z,32.22
2023-04-01T08:11:19.062Z,10.95
2023-04-01T08:14:20.275Z,3.70
2023-04-01T08:17:18.090Z,3.70
2023-04-01T08:20:18.189Z,3.38
2023-04-01T08:23:13.152Z,2.80
2023-04-01T08:26:06.403Z,3.47
2023-04-01T08:28:59.578Z,2.30
2023-04-01T08:31:53.972Z,3.13
2023-04-01T08:34:49.447Z,2.90
2023-04-01T08:37:42.199Z,1.80
2023-04-01T08:40:59.815Z,1.95
2023-04-01T08:44:26.645Z,1.92
2023-04-01T08:47:39.752Z,2.30
2023-04-01T08:51:15.807Z,2.40
2023-04-01T08:54:32.850Z,1.52
2023-04-01T08:57:31.316Z,4.10
2023-04-01T09:00:32.549Z,3.50
2023-04-01T09:03:38.862Z,6.18
2023-04-01T09:06:37.797Z,5.70
2023-04-01T09:09:57.313Z,7.38
2023-04-01T09:12:58.491Z,6.85
2023-04-01T09:16:03.136Z,7.85
2023-04-01T09:19:13.340Z,8.10
2023-04-01T09:22:30.422Z,9.50
2023-04-01T09:25:40.801Z,6.50
2023-04-01T09:28:35.504Z,6.93
2023-04-01T09:31:35.014Z,5.82
2023-04-01T09:34:38.629Z,5.20
2023-04-01T09:37:40.834Z,5.80
2023-04-01T09:40:43.595Z,5.45
2023-04-01T09:44:01.052Z,6.22
2023-04-01T09:47:00.322Z,6.63
2023-04-01T09:50:08.604Z,6.30
2023-04-01T09:53:09.341Z,5.93
2023-04-01T09:56:12.908Z,6.32
2023-04-01T09:59:37.765Z,5.78
2023-04-01T10:03:12.529Z,3.92
2023-04-01T10:06:11.522Z,4.70
2023-04-01T10:09:32.871Z,4.93
2023-04-01T10:12:41.608Z,5.20
2023-04-01T10:16:12.435Z,4.30
2023-04-01T10:19:32.362Z,4.97
2023-04-01T10:22:43.022Z,4.63
2023-04-01T10:25:55.701Z,5.75
2023-04-01T10:29:03.891Z,3.70
2023-04-01T10:32:15.319Z,3.33
2023-04-01T10:35:41.044Z,3.30
2023-04-01T10:38:40.024Z,2.80
2023-04-01T10:41:47.176Z,2.20
2023-04-01T10:45:00.026Z,2.30
2023-04-01T10:48:23.037Z,1.90
2023-04-01T10:51:27.670Z,1.77
2023-04-01T10:54:46.546Z,1.20
2023-04-01T10:58:13.124Z,1.30
2023-04-01T11:01:24.788Z,1.10
2023-04-01T11:05:07.994Z,0.70
2023-04-01T11:08:39.733Z,1.00
2023-04-01T11:12:07.080Z,0.50
2023-04-01T11:15:28.987Z,0.30
2023-04-01T11:18:47.073Z,0.20
2023-04-01T11:21:54.605Z,0.20
2023-04-01T11:24:54.399Z,0.10
2023-04-01T11:28:07.638Z,0.10
2023-04-01T11:31:12.153Z,0.10
2023-04-01T11:34:12.122Z,0.10
2023-04-01T11:37:12.136Z,0.10
2023-04-01T11:40:16.316Z,0.00
2023-04-01T11:43:26.335Z,0.10
2023-04-01T11:46:30.553Z,0.05
2023-04-01T11:49:31.986Z,0.10
2023-04-01T11:52:27.615Z,0.17
2023-04-01T11:55:27.402Z,0.10
2023-04-01T11:58:30.820Z,0.00
2023-04-01T12:01:30.793Z,0.10
2023-04-01T12:04:40.916Z,0.10
2023-04-01T12:07:55.673Z,0.10
2023-04-01T12:10:51.370Z,0.10
2023-04-01T12:13:47.143Z,0.00
2023-04-01T12:16:53.884Z,0.03
2023-04-01T12:19:50.069Z,0.10
2023-04-01T12:22:51.831Z,0.20
2023-04-01T12:26:04.255Z,0.10
2023-04-01T12:29:08.586Z,0.08
2023-04-01T12:32:06.639Z,0.10
2023-04-01T12:35:15.255Z,0.00
2023-04-01T12:38:19.782Z,0.17
2023-04-01T12:41:19.817Z,0.10
2023-04-01T12:44:37.104Z,0.00
2023-04-01T12:47:46.338Z,0.00
2023-04-01T12:50:54.069Z,0.03
2023-04-01T12:54:30.586Z,0.10
2023-04-01T12:57:34.466Z,0.10
2023-04-01T13:00:53.237Z,0.50
2023-04-01T13:04:05.377Z,0.10
2023-04-01T13:07:09.975Z,0.10
2023-04-01T13:10:08.962Z,0.00
2023-04-01T13:13:27.090Z,0.05
2023-04-01T13:16:18.548Z,0.10
2023-04-01T13:19:11.170Z,0.10
2023-04-01T13:22:05.766Z,0.20
2023-04-01T13:25:01.435Z,0.00
2023-04-01T13:27:58.073Z,0.10
2023-04-01T13:30:51.845Z,0.20
2023-04-01T13:33:47.667Z,0.10
2023-04-01T13:36:45.550Z,0.15
2023-04-01T13:40:01.750Z,0.10
2023-04-01T13:42:59.137Z,0.10
2023-04-01T13:46:24.092Z,0.10
2023-04-01T13:49:42.514Z,0.10
2023-04-01T13:52:54.886Z,0.10
2023-04-01T13:56:04.697Z,0.20
2023-04-01T13:59:27.426Z,0.20
2023-04-01T14:02:47.139Z,0.10
2023-04-01T14:05:49.342Z,0.20
2023-04-01T14:08:53.755Z,0.13
2023-04-01T14:11:50.112Z,0.10
2023-04-01T14:15:01.831Z,0.20
2023-04-01T14:18:01.052Z,0.20
2023-04-01T14:20:55.668Z,0.20
2023-04-01T14:24:13.564Z,0.20
2023-04-01T14:27:20.500Z,0.20
2023-04-01T14:30:38.309Z,0.03
2023-04-01T14:33:40.067Z,0.00
2023-04-01T14:37:00.153Z,0.10
2023-04-01T14:40:02.129Z,0.20
2023-04-01T14:43:01.388Z,0.20
2023-04-01T14:46:16.939Z,0.00
2023-04-01T14:49:16.275Z,0.30
2023-04-01T14:52:16.067Z,0.17
2023-04-01T14:55:21.756Z,0.27
2023-04-01T14:58:13.501Z,0.10
2023-04-01T15:01:12.711Z,0.13
2023-04-01T15:04:16.129Z,0.30
2023-04-01T15:07:27.162Z,0.20
2023-04-01T15:10:44.411Z,0.20
2023-04-01T15:14:17.770Z,0.20
2023-04-01T15:17:24.590Z,0.10
2023-04-01T15:20:32.237Z,0.20
2023-04-01T15:23:32.950Z,0.20
2023-04-01T15:26:39.262Z,0.15
2023-04-01T15:29:45.575Z,0.10
2023-04-01T15:32:47.310Z,0.10
2023-04-01T15:35:46.668Z,0.22
2023-04-01T15:38:40.630Z,0.10
2023-04-01T15:41:41.369Z,0.20
2023-04-01T15:44:52.490Z,0.20
2023-04-01T15:47:44.938Z,0.10
2023-04-01T15:50:55.539Z,0.30
2023-04-01T15:54:02.380Z,0.20
2023-04-01T15:57:02.969Z,0.20
2023-04-01T16:00:20.705Z,0.10
2023-04-01T16:03:35.455Z,0.28
2023-04-01T16:06:45.834Z,0.20
2023-04-01T16:09:49.571Z,0.20
2023-04-01T16:12:51.858Z,0.20
2023-04-01T16:15:46.571Z,0.30
2023-04-01T16:18:52.794Z,0.20
2023-04-01T16:21:48.277Z,0.30
2023-04-01T16:24:41.107Z,0.30
2023-04-01T16:27:37.339Z,0.10
2023-04-01T16:30:35.489Z,0.30
2023-04-01T16:33:29.999Z,0.40
2023-04-01T16:36:29.495Z,0.28
2023-04-01T16:39:30.794Z,0.28
2023-04-01T16:42:30.936Z,0.40
2023-04-01T16:45:28.560Z,0.28
2023-04-01T16:48:21.184Z,0.50
2023-04-01T16:51:16.922Z,0.50
2023-04-01T16:54:14.688Z,0.80
2023-04-01T16:57:19.747Z,0.80
2023-04-01T17:00:19.596Z,1.00
2023-04-01T17:03:18.619Z,0.60
2023-04-01T17:06:21.780Z,0.50
2023-04-01T17:09:36.274Z,0.57
2023-04-01T17:12:30.256Z,0.40
2023-04-01T17:15:27.549Z,0.40
2023-04-01T17:18:25.938Z,0.37
2023-04-01T17:21:20.482Z,0.40
2023-04-01T17:24:24.678Z,0.43
2023-04-01T17:27:28.517Z,0.70
2023-04-01T17:30:32.291Z,0.70
2023-04-01T17:33:43.669Z,0.70
2023-04-01T17:36:46.553Z,0.70
2023-04-01T17:39:48.840Z,0.90
2023-04-01T17:42:44.677Z,0.75
2023-04-01T17:45:38.963Z,1.15
2023-04-01T17:48:40.722Z,1.00
2023-04-01T17:51:35.920Z,0.98
2023-04-01T17:54:35.883Z,1.00
2023-04-01T17:57:46.426Z,1.00
2023-04-01T18:00:52.860Z,1.08
2023-04-01T18:04:07.246Z,1.10
2023-04-01T18:07:31.458Z,1.10
2023-04-01T18:10:28.899Z,1.25
2023-04-01T18:13:37.722Z,0.90
2023-04-01T18:16:40.459Z,1.10
2023-04-01T18:19:37.744Z,1.27
2023-04-01T18:22:31.685Z,1.00
2023-04-01T18:25:27.560Z,0.77
2023-04-01T18:28:29.531Z,1.08
2023-04-01T18:31:21.145Z,1.25
2023-04-01T18:34:15.016Z,1.02
2023-04-01T18:37:15.101Z,1.00
2023-04-01T18:40:17.587Z,0.90
2023-04-01T18:44:03.395Z,1.10
2023-04-01T18:47:02.748Z,1.00
2023-04-01T18:49:57.743Z,0.77
2023-04-01T18:52:46.800Z,0.70
2023-04-01T18:55:41.007Z,0.75
2023-04-01T18:58:37.099Z,0.90
2023-04-01T19:01:30.357Z,0.77
2023-04-01T19:04:25.941Z,0.80
2023-04-01T19:07:47.929Z,0.70
2023-04-01T19:10:48.016Z,0.80
2023-04-01T19:13:48.186Z,1.23
2023-04-01T19:16:51.484Z,1.02
2023-04-01T19:19:53.528Z,1.30
2023-04-01T19:22:55.939Z,1.58
2023-04-01T19:25:48.338Z,2.20
2023-04-01T19:28:49.746Z,2.40
2023-04-01T19:31:50.357Z,1.55
2023-04-01T19:34:51.999Z,1.30
2023-04-01T19:37:42.497Z,1.30
2023-04-01T19:40:42.729Z,1.38
2023-04-01T19:43:49.104Z,1.15
2023-04-01T19:46:43.056Z,1.48
2023-04-01T19:49:44.563Z,1.70
2023-04-01T19:52:37.875Z,1.52
2023-04-01T19:55:37.340Z,1.42
2023-04-01T19:58:33.460Z,1.55
2023-04-01T20:01:41.678Z,1.50
2023-04-01T20:04:39.595Z,1.52
2023-04-01T20:07:32.917Z,1.40
2023-04-01T20:10:27.572Z,1.20
2023-04-01T20:13:27.754Z,1.20
2023-04-01T20:16:17.581Z,1.55
2023-04-01T20:19:06.462Z,1.13
2023-04-01T20:22:00.406Z,1.25
2023-04-01T20:24:49.521Z,1.52
2023-04-01T20:27:43.147Z,1.13
2023-04-01T20:30:41.641Z,1.60
2023-04-01T20:33:44.970Z,1.30
2023-04-01T20:36:37.119Z,1.30
2023-04-01T20:39:43.225Z,1.10
2023-04-01T20:42:46.817Z,0.90
2023-04-01T20:45:42.106Z,1.07
2023-04-01T20:49:00.663Z,1.17
2023-04-01T20:51:55.604Z,0.80
2023-04-01T20:54:57.879Z,1.20
2023-04-01T20:57:53.315Z,1.17
2023-04-01T21:00:54.711Z,1.30
2023-04-01T21:03:49.446Z,1.08
2023-04-01T21:06:50.794Z,0.88
2023-04-01T21:09:50.872Z,1.13
2023-04-01T21:12:50.078Z,1.20
2023-04-01T21:16:04.693Z,1.35
2023-04-01T21:19:19.961Z,1.10
2023-04-01T21:22:23.460Z,0.83
2023-04-01T21:25:30.337Z,0.85
2023-04-01T21:28:36.564Z,1.33
2023-04-01T21:31:39.465Z,1.33
2023-04-01T21:34:52.686Z,1.27
2023-04-01T21:37:56.014Z,1.20
2023-04-01T21:41:04.729Z,1.40
2023-04-01T21:44:19.825Z,1.35
2023-04-01T21:47:49.505Z,1.55
2023-04-01T21:51:18.832Z,1.30
2023-04-01T21:54:36.582Z,1.17
2023-04-01T21:57:57.768Z,1.30
2023-04-01T22:00:53.353Z,1.20
2023-04-01T22:04:12.917Z,1.17
2023-04-01T22:07:07.452Z,1.37
2023-04-01T22:10:04.707Z,1.23
2023-04-01T22:13:00.473Z,1.00
2023-04-01T22:15:59.573Z,1.13
2023-04-01T22:19:00.123Z,1.13
2023-04-01T22:22:02.554Z,1.20
2023-04-01T22:25:02.667Z,1.20
2023-04-01T22:27:57.827Z,1.00
2023-04-01T22:30:51.429Z,1.60
2023-04-01T22:33:48.816Z,1.92
2023-04-01T22:36:47.728Z,1.20
2023-04-01T22:40:01.099Z,1.50
2023-04-01T22:42:55.036Z,1.02
2023-04-01T22:46:28.671Z,1.13
2023-04-01T22:49:23.641Z,1.33
2023-04-01T22:52:23.149Z,1.33
2023-04-01T22:55:16.399Z,1.15
2023-04-01T22:58:07.442Z,1.15
2023-04-01T23:01:01.621Z,0.80
2023-04-01T23:03:53.474Z,0.98
2023-04-01T23:06:46.214Z,0.97
2023-04-01T23:09:37.829Z,0.90
2023-04-01T23:12:27.940Z,1.10
2023-04-01T23:15:18.219Z,0.90
2023-04-01T23:18:23.816Z,1.08
2023-04-01T23:21:17.931Z,0.85
2023-04-01T23:24:19.047Z,1.00
2023-04-01T23:27:19.113Z,1.03
2023-04-01T23:30:46.792Z,0.90
2023-04-01T23:33:35.274Z,0.90
2023-04-01T23:36:24.209Z,0.85
2023-04-01T23:39:23.426Z,1.00
2023-04-01T23:42:20.709Z,0.80
2023-04-01T23:45:18.191Z,0.90
2023-04-01T23:48:07.649Z,0.70
2023-04-01T23:50:57.110Z,1.30
2023-04-01T23:53:47.629Z,1.05
2023-04-01T23:56:43.182Z,1.70
2023-04-01T23:59:34.940Z,1.00
